This is the latest recevied weather packets stored in our database for station/object SQ2LXT-10. If no packets are shown the sender has not sent any weather packets the latest 10 day(s).
| Time | Temp. | Humidity | Pressure | Rain* | Wind** | Luminosity | Snow |
|---|---|---|---|---|---|---|---|
| 1777559417 | 15.56° C | 39% | 1023 hPa | - | - | - | - |
| 1777558512 | 15.56° C | 38% | 1023 hPa | - | - | - | - |
| 1777557612 | 15° C | 39% | 1023.1 hPa | - | - | - | - |
| 1777556712 | 15° C | 38% | 1023.1 hPa | - | - | - | - |
| 1777555812 | 15.56° C | 36% | 1023.2 hPa | - | - | - | - |
| 1777554912 | 17.22° C | 34% | 1023.3 hPa | - | - | - | - |
| 1777554012 | 16.67° C | 35% | 1023.5 hPa | - | - | - | - |
| 1777553112 | 17.78° C | 33% | 1023.7 hPa | - | - | - | - |
| 1777552211 | 15° C | 36% | 1024 hPa | - | - | - | - |
| 1777551311 | 15.56° C | 37% | 1024.1 hPa | - | - | - | - |
| 1777550411 | 15° C | 34% | 1024.2 hPa | - | - | - | - |
| 1777549511 | 14.44° C | 35% | 1024.4 hPa | - | - | - | - |
| 1777548611 | 14.44° C | 33% | 1024.7 hPa | - | - | - | - |
| 1777547711 | 14.44° C | 35% | 1024.7 hPa | - | - | - | - |
| 1777546811 | 14.44° C | 33% | 1024.9 hPa | - | - | - | - |
| 1777545911 | 13.33° C | 33% | 1025 hPa | - | - | - | - |
| 1777545011 | 13.33° C | 31% | 1025.1 hPa | - | - | - | - |
| 1777544111 | 14.44° C | 30% | 1025.2 hPa | - | - | - | - |
| 1777543211 | 13.33° C | 31% | 1025.3 hPa | - | - | - | - |
| 1777542311 | 14.44° C | 27% | 1025.5 hPa | - | - | - | - |
| 1777541411 | 14.44° C | 31% | 1025.6 hPa | - | - | - | - |
| 1777540511 | 13.89° C | 33% | 1025.7 hPa | - | - | - | - |
| 1777539611 | 13.33° C | 31% | 1025.9 hPa | - | - | - | - |
| 1777538710 | 12.78° C | 34% | 1025.9 hPa | - | - | - | - |
| 1777537810 | 11.11° C | 38% | 1026.1 hPa | - | - | - | - |
* Rain since midnight (hover to see other rain measurements)
** Current wind speed in m/s (hover to see current wind gust speed)